createdAt,value
2023-02-24T00:02:50.115Z,6.88
2023-02-24T00:07:54.358Z,6.82
2023-02-24T00:12:59.238Z,6.83
2023-02-24T00:18:07.361Z,6.79
2023-02-24T00:23:11.500Z,6.80
2023-02-24T00:28:15.658Z,6.88
2023-02-24T00:33:23.194Z,6.95
2023-02-24T00:38:31.780Z,6.96
2023-02-24T00:43:37.978Z,6.98
2023-02-24T00:48:46.072Z,7.02
2023-02-24T00:53:51.561Z,7.11
2023-02-24T00:58:57.496Z,7.12
2023-02-24T01:04:11.470Z,7.13
2023-02-24T01:09:18.965Z,7.17
2023-02-24T01:14:27.213Z,7.13
2023-02-24T01:19:35.583Z,7.15
2023-02-24T01:24:42.554Z,7.19
2023-02-24T01:29:47.453Z,7.23
2023-02-24T01:34:54.850Z,7.25
2023-02-24T01:40:04.780Z,7.22
2023-02-24T01:45:29.722Z,7.18
2023-02-24T01:50:36.707Z,7.20
2023-02-24T01:55:49.189Z,7.21
2023-02-24T02:00:54.353Z,7.21
2023-02-24T02:06:02.593Z,7.17
2023-02-24T02:11:11.355Z,7.18
2023-02-24T02:16:46.346Z,7.21
2023-02-24T02:22:08.433Z,7.18
2023-02-24T02:27:41.241Z,7.18
2023-02-24T02:33:36.120Z,7.21
2023-02-24T02:38:54.112Z,7.21
2023-02-24T02:44:12.111Z,7.18
2023-02-24T02:49:24.076Z,7.22
2023-02-24T02:54:36.713Z,7.17
2023-02-24T02:59:50.023Z,7.17
2023-02-24T03:04:58.251Z,7.22
2023-02-24T03:10:11.428Z,7.22
2023-02-24T03:15:21.065Z,7.22
2023-02-24T03:20:32.721Z,7.22
2023-02-24T03:25:46.840Z,7.21
2023-02-24T03:31:03.729Z,7.18
2023-02-24T03:36:08.798Z,7.23
2023-02-24T03:41:17.206Z,7.21
2023-02-24T03:46:22.183Z,7.21
2023-02-24T03:51:26.634Z,7.17
2023-02-24T03:56:50.563Z,7.17
2023-02-24T04:02:03.770Z,7.17
2023-02-24T04:07:24.058Z,7.16
2023-02-24T04:12:38.281Z,7.17
2023-02-24T04:17:51.033Z,7.21
2023-02-24T04:23:03.062Z,7.18
2023-02-24T04:28:09.217Z,7.15
2023-02-24T04:33:16.697Z,7.14
2023-02-24T04:38:21.434Z,7.07
2023-02-24T04:43:29.595Z,7.12
2023-02-24T04:48:33.975Z,7.11
2023-02-24T04:53:38.151Z,7.03
2023-02-24T04:58:46.384Z,6.98
2023-02-24T05:03:50.749Z,6.93
2023-02-24T05:08:54.986Z,6.92
2023-02-24T05:14:00.684Z,6.91
2023-02-24T05:19:22.880Z,6.88
2023-02-24T05:24:29.911Z,6.95
2023-02-24T05:29:36.896Z,6.98
2023-02-24T05:34:42.748Z,6.97
2023-02-24T05:39:47.145Z,6.99
2023-02-24T05:44:53.685Z,6.96
2023-02-24T05:49:59.258Z,7.01
2023-02-24T05:55:06.667Z,7.01
2023-02-24T06:00:16.331Z,7.01
2023-02-24T06:05:31.092Z,7.02
2023-02-24T06:10:35.949Z,7.04
2023-02-24T06:15:42.036Z,7.03
2023-02-24T06:20:51.401Z,7.06
2023-02-24T06:25:57.828Z,7.07
2023-02-24T06:31:06.979Z,7.02
2023-02-24T06:36:11.494Z,6.98
2023-02-24T06:41:15.627Z,7.04
2023-02-24T06:46:21.349Z,6.93
2023-02-24T06:51:30.375Z,6.96
2023-02-24T06:56:38.821Z,6.90
2023-02-24T07:01:47.200Z,6.85
2023-02-24T07:06:55.835Z,6.91
2023-02-24T07:12:02.880Z,6.92
2023-02-24T07:17:08.695Z,6.92
2023-02-24T07:22:17.073Z,6.96
2023-02-24T07:27:23.297Z,6.95
2023-02-24T07:32:30.640Z,7.05
2023-02-24T07:37:35.253Z,7.09
2023-02-24T07:42:39.815Z,7.06
2023-02-24T07:47:45.606Z,7.04
2023-02-24T07:52:50.047Z,7.04
2023-02-24T07:57:54.852Z,6.92
2023-02-24T08:03:00.818Z,6.89
2023-02-24T08:08:05.142Z,6.88
2023-02-24T08:13:12.078Z,6.91
2023-02-24T08:18:20.093Z,6.88
2023-02-24T08:23:24.517Z,6.84
2023-02-24T08:28:28.644Z,6.78
2023-02-24T08:33:37.300Z,6.83
2023-02-24T08:38:42.362Z,6.84
2023-02-24T08:43:48.035Z,7.01
2023-02-24T08:48:56.544Z,7.02
2023-02-24T08:54:11.428Z,6.94
2023-02-24T08:59:38.208Z,6.92
2023-02-24T09:04:46.005Z,7.01
2023-02-24T09:09:50.920Z,7.17
2023-02-24T09:14:57.026Z,7.25
2023-02-24T09:20:44.319Z,7.31
2023-02-24T09:25:54.349Z,7.48
2023-02-24T09:31:04.862Z,7.47
2023-02-24T09:36:13.843Z,7.42
2023-02-24T09:41:33.599Z,7.44
2023-02-24T09:46:54.254Z,7.44
2023-02-24T09:52:08.974Z,7.43
2023-02-24T09:57:20.052Z,7.36
2023-02-24T10:02:45.157Z,7.31
2023-02-24T10:07:53.354Z,7.26
2023-02-24T10:13:13.357Z,7.28
2023-02-24T10:18:29.037Z,7.20
2023-02-24T10:23:56.828Z,7.25
2023-02-24T10:29:22.568Z,7.21
2023-02-24T10:34:32.024Z,7.16
2023-02-24T10:39:42.503Z,7.15
2023-02-24T10:45:01.510Z,7.15
2023-02-24T10:50:20.910Z,7.19
2023-02-24T10:55:52.318Z,7.15
2023-02-24T11:01:13.660Z,7.22
2023-02-24T11:06:47.238Z,7.13
2023-02-24T11:12:10.483Z,7.24
2023-02-24T11:17:27.158Z,7.12
2023-02-24T11:22:37.322Z,7.13
2023-02-24T11:27:47.388Z,7.13
2023-02-24T11:33:18.339Z,7.14
2023-02-24T11:38:37.279Z,7.28
2023-02-24T11:43:47.209Z,7.48
2023-02-24T11:48:57.692Z,7.52
2023-02-24T11:54:05.218Z,7.64
2023-02-24T11:59:19.342Z,7.65
2023-02-24T12:04:31.310Z,7.69
2023-02-24T12:09:44.207Z,7.69
2023-02-24T12:14:54.547Z,7.63
2023-02-24T12:20:06.566Z,7.59
2023-02-24T12:25:15.114Z,7.63
2023-02-24T12:30:49.001Z,7.71
2023-02-24T12:36:04.093Z,7.74
2023-02-24T12:41:26.650Z,7.77
2023-02-24T12:46:36.339Z,7.63
2023-02-24T12:51:52.068Z,7.57
2023-02-24T12:57:07.233Z,7.41
2023-02-24T13:02:20.935Z,7.18
2023-02-24T13:07:52.045Z,7.05
2023-02-24T13:13:10.616Z,7.03
2023-02-24T13:18:26.472Z,7.14
2023-02-24T13:23:31.725Z,7.19
2023-02-24T13:28:38.616Z,7.17
2023-02-24T13:33:46.163Z,7.21
2023-02-24T13:38:52.733Z,6.95
2023-02-24T13:44:00.282Z,7.03
2023-02-24T13:49:37.763Z,6.83
2023-02-24T13:55:22.784Z,6.75
2023-02-24T14:00:37.874Z,6.75
2023-02-24T14:05:44.544Z,6.76
2023-02-24T14:10:55.165Z,6.66
2023-02-24T14:16:02.402Z,6.57
2023-02-24T14:21:18.497Z,6.52
2023-02-24T14:26:23.362Z,6.44
2023-02-24T14:31:28.879Z,6.48
2023-02-24T14:36:40.212Z,6.44
2023-02-24T14:41:45.657Z,6.43
2023-02-24T14:46:52.327Z,6.55
2023-02-24T14:52:05.547Z,6.75
2023-02-24T14:57:16.065Z,6.86
2023-02-24T15:02:25.949Z,6.84
2023-02-24T15:07:35.226Z,6.84
2023-02-24T15:12:48.054Z,6.76
2023-02-24T15:17:58.923Z,6.63
2023-02-24T15:23:05.403Z,6.69
2023-02-24T15:28:25.931Z,6.63
2023-02-24T15:33:37.393Z,6.57
2023-02-24T15:38:44.464Z,6.45
2023-02-24T15:43:53.268Z,6.37
2023-02-24T15:49:01.763Z,6.36
2023-02-24T15:54:13.629Z,6.34
2023-02-24T15:59:21.372Z,6.32
2023-02-24T16:04:27.711Z,6.23
2023-02-24T16:09:38.066Z,6.19
2023-02-24T16:14:44.018Z,6.10
2023-02-24T16:19:48.199Z,6.01
2023-02-24T16:24:54.142Z,5.96
2023-02-24T16:29:59.374Z,5.91
2023-02-24T16:35:04.114Z,5.92
2023-02-24T16:40:25.220Z,5.76
2023-02-24T16:45:32.172Z,5.87
2023-02-24T16:50:41.419Z,5.86
2023-02-24T16:55:48.708Z,5.87
2023-02-24T17:00:59.041Z,5.91
2023-02-24T17:06:03.372Z,5.91
2023-02-24T17:11:13.751Z,5.91
2023-02-24T17:16:18.813Z,5.99
2023-02-24T17:21:23.253Z,5.98
2023-02-24T17:26:29.340Z,5.95
2023-02-24T17:31:35.063Z,5.91
2023-02-24T17:36:39.449Z,5.71
2023-02-24T17:41:45.425Z,5.42
2023-02-24T17:46:49.706Z,5.41
2023-02-24T17:51:54.027Z,5.34
2023-02-24T17:56:59.830Z,5.25
2023-02-24T18:02:04.612Z,5.05
2023-02-24T18:07:08.922Z,5.01
2023-02-24T18:12:14.730Z,4.99
2023-02-24T18:17:19.984Z,5.10
2023-02-24T18:22:25.601Z,4.98
2023-02-24T18:27:32.799Z,4.97
2023-02-24T18:32:44.564Z,4.99
2023-02-24T18:37:53.297Z,5.11
2023-02-24T18:42:59.014Z,5.21
2023-02-24T18:48:05.233Z,5.33
2023-02-24T18:53:09.378Z,5.43
2023-02-24T18:58:15.261Z,5.43
2023-02-24T19:03:19.547Z,5.52
2023-02-24T19:08:23.815Z,5.52
2023-02-24T19:13:29.500Z,5.55
2023-02-24T19:18:34.555Z,5.57
2023-02-24T19:23:39.859Z,5.58
2023-02-24T19:28:46.314Z,5.57
2023-02-24T19:33:53.880Z,5.45
2023-02-24T19:38:58.413Z,5.44
2023-02-24T19:44:04.487Z,5.45
2023-02-24T19:49:08.827Z,5.42
2023-02-24T19:54:14.899Z,5.39
2023-02-24T19:59:20.613Z,5.39
2023-02-24T20:04:25.649Z,5.33
2023-02-24T20:09:29.947Z,5.32
2023-02-24T20:14:35.766Z,5.27
2023-02-24T20:19:40.833Z,5.29
2023-02-24T20:24:45.167Z,5.29
2023-02-24T20:29:53.467Z,5.31
2023-02-24T20:34:58.268Z,5.27
2023-02-24T20:40:02.729Z,5.20
2023-02-24T20:45:12.360Z,5.21
2023-02-24T20:50:16.968Z,5.20
2023-02-24T20:55:22.637Z,5.15
2023-02-24T21:00:28.642Z,5.08
2023-02-24T21:05:32.920Z,5.14
2023-02-24T21:10:37.108Z,5.11
2023-02-24T21:15:50.145Z,5.09
2023-02-24T21:20:55.719Z,4.98
2023-02-24T21:26:00.635Z,4.91
2023-02-24T21:31:12.413Z,4.89
2023-02-24T21:36:16.813Z,4.87
2023-02-24T21:41:21.974Z,4.90
2023-02-24T21:46:28.555Z,4.80
2023-02-24T21:51:33.518Z,4.68
2023-02-24T21:56:37.848Z,4.56
2023-02-24T22:01:46.017Z,4.52
2023-02-24T22:06:50.946Z,4.45
2023-02-24T22:11:55.595Z,4.48
2023-02-24T22:17:01.130Z,4.43
2023-02-24T22:22:05.999Z,4.33
2023-02-24T22:27:10.230Z,4.24
2023-02-24T22:32:16.451Z,4.11
2023-02-24T22:37:20.888Z,4.20
2023-02-24T22:42:25.923Z,4.16
2023-02-24T22:47:32.281Z,4.04
2023-02-24T22:52:36.849Z,3.72
2023-02-24T22:57:41.185Z,3.52
2023-02-24T23:02:47.697Z,3.62
2023-02-24T23:07:52.361Z,3.58
2023-02-24T23:12:57.026Z,3.56
2023-02-24T23:18:03.024Z,3.59
2023-02-24T23:23:08.365Z,3.55
2023-02-24T23:28:12.560Z,3.63
2023-02-24T23:33:18.564Z,3.65
2023-02-24T23:38:22.874Z,3.58
2023-02-24T23:43:27.369Z,3.56
2023-02-24T23:48:33.821Z,3.54
2023-02-24T23:53:39.442Z,3.51
2023-02-24T23:58:44.215Z,3.37
